sensor_id;sensor_type;location;lat;lon;timestamp;P1;durP1;ratioP1;P2;durP2;ratioP2
6306;SDS011;3186;54.062;9.962;2023-06-14T00:02:06;5.17;;;3.30;;
6306;SDS011;3186;54.062;9.962;2023-06-14T00:04:34;4.20;;;3.03;;
6306;SDS011;3186;54.062;9.962;2023-06-14T00:07:01;3.50;;;3.07;;
6306;SDS011;3186;54.062;9.962;2023-06-14T00:09:27;3.57;;;2.57;;
6306;SDS011;3186;54.062;9.962;2023-06-14T00:11:52;4.90;;;2.90;;
6306;SDS011;3186;54.062;9.962;2023-06-14T00:14:18;3.70;;;2.57;;
6306;SDS011;3186;54.062;9.962;2023-06-14T00:16:44;4.90;;;2.80;;
6306;SDS011;3186;54.062;9.962;2023-06-14T00:19:10;9.67;;;3.43;;
6306;SDS011;3186;54.062;9.962;2023-06-14T00:21:37;4.07;;;2.63;;
6306;SDS011;3186;54.062;9.962;2023-06-14T00:24:03;6.03;;;2.90;;
6306;SDS011;3186;54.062;9.962;2023-06-14T00:26:29;5.70;;;3.00;;
6306;SDS011;3186;54.062;9.962;2023-06-14T00:28:55;5.33;;;3.10;;
6306;SDS011;3186;54.062;9.962;2023-06-14T00:31:22;4.70;;;2.73;;
6306;SDS011;3186;54.062;9.962;2023-06-14T00:33:48;3.93;;;2.60;;
6306;SDS011;3186;54.062;9.962;2023-06-14T00:36:15;4.93;;;2.80;;
6306;SDS011;3186;54.062;9.962;2023-06-14T00:38:41;5.30;;;3.10;;
6306;SDS011;3186;54.062;9.962;2023-06-14T00:41:07;4.57;;;3.17;;
6306;SDS011;3186;54.062;9.962;2023-06-14T00:43:33;8.17;;;3.07;;
6306;SDS011;3186;54.062;9.962;2023-06-14T00:46:00;6.70;;;3.37;;
6306;SDS011;3186;54.062;9.962;2023-06-14T00:48:26;3.63;;;2.87;;
6306;SDS011;3186;54.062;9.962;2023-06-14T00:50:52;5.23;;;3.07;;
6306;SDS011;3186;54.062;9.962;2023-06-14T00:53:19;4.00;;;2.53;;
6306;SDS011;3186;54.062;9.962;2023-06-14T00:55:48;5.07;;;2.83;;
6306;SDS011;3186;54.062;9.962;2023-06-14T00:58:15;4.43;;;3.03;;
6306;SDS011;3186;54.062;9.962;2023-06-14T01:00:42;8.23;;;3.50;;
6306;SDS011;3186;54.062;9.962;2023-06-14T01:03:08;6.70;;;2.67;;
6306;SDS011;3186;54.062;9.962;2023-06-14T01:05:37;3.67;;;3.23;;
6306;SDS011;3186;54.062;9.962;2023-06-14T01:10:53;5.27;;;3.20;;
6306;SDS011;3186;54.062;9.962;2023-06-14T01:13:21;6.07;;;3.13;;
6306;SDS011;3186;54.062;9.962;2023-06-14T01:15:54;5.70;;;3.07;;
6306;SDS011;3186;54.062;9.962;2023-06-14T01:18:21;4.27;;;2.93;;
6306;SDS011;3186;54.062;9.962;2023-06-14T01:20:49;4.50;;;2.93;;
6306;SDS011;3186;54.062;9.962;2023-06-14T01:23:19;4.30;;;3.17;;
6306;SDS011;3186;54.062;9.962;2023-06-14T01:25:46;5.23;;;3.00;;
6306;SDS011;3186;54.062;9.962;2023-06-14T01:28:13;4.00;;;2.93;;
6306;SDS011;3186;54.062;9.962;2023-06-14T01:30:42;4.30;;;2.60;;
6306;SDS011;3186;54.062;9.962;2023-06-14T01:33:24;6.73;;;3.37;;
6306;SDS011;3186;54.062;9.962;2023-06-14T01:35:52;5.57;;;3.67;;
6306;SDS011;3186;54.062;9.962;2023-06-14T01:38:19;3.57;;;3.20;;
6306;SDS011;3186;54.062;9.962;2023-06-14T01:40:49;8.50;;;3.43;;
6306;SDS011;3186;54.062;9.962;2023-06-14T01:43:16;5.87;;;3.60;;
6306;SDS011;3186;54.062;9.962;2023-06-14T01:45:44;5.63;;;2.97;;
6306;SDS011;3186;54.062;9.962;2023-06-14T01:48:13;6.80;;;3.00;;
6306;SDS011;3186;54.062;9.962;2023-06-14T01:50:40;7.80;;;3.83;;
6306;SDS011;3186;54.062;9.962;2023-06-14T01:53:09;9.47;;;3.53;;
6306;SDS011;3186;54.062;9.962;2023-06-14T01:55:36;4.13;;;3.20;;
6306;SDS011;3186;54.062;9.962;2023-06-14T01:58:05;8.37;;;3.67;;
6306;SDS011;3186;54.062;9.962;2023-06-14T02:00:31;10.50;;;3.33;;
6306;SDS011;3186;54.062;9.962;2023-06-14T02:02:57;12.17;;;4.00;;
6306;SDS011;3186;54.062;9.962;2023-06-14T02:05:25;6.20;;;3.50;;
6306;SDS011;3186;54.062;9.962;2023-06-14T02:07:51;4.37;;;3.13;;
6306;SDS011;3186;54.062;9.962;2023-06-14T02:10:18;7.30;;;3.70;;
6306;SDS011;3186;54.062;9.962;2023-06-14T02:12:46;5.80;;;3.00;;
6306;SDS011;3186;54.062;9.962;2023-06-14T02:15:12;7.47;;;3.37;;
6306;SDS011;3186;54.062;9.962;2023-06-14T02:17:47;6.37;;;3.43;;
6306;SDS011;3186;54.062;9.962;2023-06-14T02:20:15;7.83;;;3.27;;
6306;SDS011;3186;54.062;9.962;2023-06-14T02:22:41;9.33;;;3.70;;
6306;SDS011;3186;54.062;9.962;2023-06-14T02:25:07;7.23;;;3.70;;
6306;SDS011;3186;54.062;9.962;2023-06-14T02:27:34;5.27;;;3.40;;
6306;SDS011;3186;54.062;9.962;2023-06-14T02:30:02;6.60;;;3.33;;
6306;SDS011;3186;54.062;9.962;2023-06-14T02:32:31;6.87;;;3.77;;
6306;SDS011;3186;54.062;9.962;2023-06-14T02:34:59;8.80;;;3.77;;
6306;SDS011;3186;54.062;9.962;2023-06-14T02:37:25;5.50;;;3.50;;
6306;SDS011;3186;54.062;9.962;2023-06-14T02:39:52;6.43;;;3.80;;
6306;SDS011;3186;54.062;9.962;2023-06-14T02:42:18;9.67;;;3.93;;
6306;SDS011;3186;54.062;9.962;2023-06-14T02:44:43;7.87;;;3.23;;
6306;SDS011;3186;54.062;9.962;2023-06-14T02:47:11;7.27;;;3.67;;
6306;SDS011;3186;54.062;9.962;2023-06-14T02:49:37;6.20;;;3.30;;
6306;SDS011;3186;54.062;9.962;2023-06-14T02:52:03;3.90;;;3.50;;
6306;SDS011;3186;54.062;9.962;2023-06-14T02:54:30;6.40;;;3.70;;
6306;SDS011;3186;54.062;9.962;2023-06-14T02:56:57;6.57;;;3.70;;
6306;SDS011;3186;54.062;9.962;2023-06-14T02:59:23;9.20;;;3.83;;
6306;SDS011;3186;54.062;9.962;2023-06-14T03:01:52;8.73;;;3.13;;
6306;SDS011;3186;54.062;9.962;2023-06-14T03:04:17;5.87;;;3.40;;
6306;SDS011;3186;54.062;9.962;2023-06-14T03:06:44;5.57;;;3.60;;
6306;SDS011;3186;54.062;9.962;2023-06-14T03:09:17;9.27;;;3.73;;
6306;SDS011;3186;54.062;9.962;2023-06-14T03:11:45;4.13;;;3.33;;
6306;SDS011;3186;54.062;9.962;2023-06-14T03:14:11;7.60;;;3.57;;
6306;SDS011;3186;54.062;9.962;2023-06-14T03:16:38;6.70;;;4.10;;
6306;SDS011;3186;54.062;9.962;2023-06-14T03:19:08;5.47;;;3.37;;
6306;SDS011;3186;54.062;9.962;2023-06-14T03:21:34;5.83;;;3.93;;
6306;SDS011;3186;54.062;9.962;2023-06-14T03:24:02;7.47;;;3.83;;
6306;SDS011;3186;54.062;9.962;2023-06-14T03:26:29;5.93;;;3.60;;
6306;SDS011;3186;54.062;9.962;2023-06-14T03:28:58;3.80;;;3.43;;
6306;SDS011;3186;54.062;9.962;2023-06-14T03:31:24;7.50;;;3.53;;
6306;SDS011;3186;54.062;9.962;2023-06-14T03:33:50;7.60;;;3.50;;
6306;SDS011;3186;54.062;9.962;2023-06-14T03:36:17;8.13;;;3.50;;
6306;SDS011;3186;54.062;9.962;2023-06-14T03:38:44;7.60;;;3.60;;
6306;SDS011;3186;54.062;9.962;2023-06-14T03:41:11;7.80;;;3.37;;
6306;SDS011;3186;54.062;9.962;2023-06-14T03:43:37;4.43;;;3.03;;
6306;SDS011;3186;54.062;9.962;2023-06-14T03:46:03;8.50;;;3.70;;
6306;SDS011;3186;54.062;9.962;2023-06-14T03:48:31;5.67;;;3.50;;
6306;SDS011;3186;54.062;9.962;2023-06-14T03:50:57;5.50;;;3.40;;
6306;SDS011;3186;54.062;9.962;2023-06-14T03:53:23;4.83;;;3.30;;
6306;SDS011;3186;54.062;9.962;2023-06-14T03:55:51;6.00;;;3.23;;
6306;SDS011;3186;54.062;9.962;2023-06-14T03:58:18;7.33;;;3.10;;
6306;SDS011;3186;54.062;9.962;2023-06-14T04:00:45;7.07;;;3.43;;
6306;SDS011;3186;54.062;9.962;2023-06-14T04:03:12;12.00;;;3.73;;
6306;SDS011;3186;54.062;9.962;2023-06-14T04:05:41;6.93;;;2.97;;
6306;SDS011;3186;54.062;9.962;2023-06-14T04:08:08;5.73;;;3.53;;
6306;SDS011;3186;54.062;9.962;2023-06-14T04:10:35;8.93;;;3.63;;
6306;SDS011;3186;54.062;9.962;2023-06-14T04:13:01;5.83;;;3.37;;
6306;SDS011;3186;54.062;9.962;2023-06-14T04:15:28;6.27;;;3.40;;
6306;SDS011;3186;54.062;9.962;2023-06-14T04:17:55;6.50;;;3.63;;
6306;SDS011;3186;54.062;9.962;2023-06-14T04:20:23;4.03;;;2.90;;
6306;SDS011;3186;54.062;9.962;2023-06-14T04:22:52;7.77;;;3.47;;
6306;SDS011;3186;54.062;9.962;2023-06-14T04:25:19;5.90;;;3.57;;
6306;SDS011;3186;54.062;9.962;2023-06-14T04:27:46;5.07;;;3.17;;
6306;SDS011;3186;54.062;9.962;2023-06-14T04:30:12;7.17;;;3.63;;
6306;SDS011;3186;54.062;9.962;2023-06-14T04:32:47;7.80;;;3.63;;
6306;SDS011;3186;54.062;9.962;2023-06-14T04:35:15;7.03;;;3.37;;
6306;SDS011;3186;54.062;9.962;2023-06-14T04:37:43;4.50;;;3.07;;
6306;SDS011;3186;54.062;9.962;2023-06-14T04:40:11;6.50;;;3.20;;
6306;SDS011;3186;54.062;9.962;2023-06-14T04:42:37;5.33;;;3.30;;
6306;SDS011;3186;54.062;9.962;2023-06-14T04:45:07;4.60;;;3.07;;
6306;SDS011;3186;54.062;9.962;2023-06-14T04:47:35;8.87;;;3.80;;
6306;SDS011;3186;54.062;9.962;2023-06-14T04:50:04;4.20;;;2.77;;
6306;SDS011;3186;54.062;9.962;2023-06-14T04:52:31;5.63;;;3.13;;
6306;SDS011;3186;54.062;9.962;2023-06-14T04:54:59;4.57;;;3.40;;
6306;SDS011;3186;54.062;9.962;2023-06-14T04:57:26;7.30;;;3.23;;
6306;SDS011;3186;54.062;9.962;2023-06-14T04:59:55;5.97;;;3.37;;
6306;SDS011;3186;54.062;9.962;2023-06-14T05:02:24;5.00;;;3.20;;
6306;SDS011;3186;54.062;9.962;2023-06-14T05:04:51;5.40;;;3.37;;
6306;SDS011;3186;54.062;9.962;2023-06-14T05:07:18;4.67;;;2.90;;
6306;SDS011;3186;54.062;9.962;2023-06-14T05:09:44;8.97;;;3.40;;
6306;SDS011;3186;54.062;9.962;2023-06-14T05:12:11;5.63;;;3.20;;
6306;SDS011;3186;54.062;9.962;2023-06-14T05:14:38;7.67;;;3.40;;
6306;SDS011;3186;54.062;9.962;2023-06-14T05:17:05;5.23;;;3.20;;
6306;SDS011;3186;54.062;9.962;2023-06-14T05:19:31;5.37;;;3.23;;
6306;SDS011;3186;54.062;9.962;2023-06-14T05:21:57;8.63;;;3.23;;
6306;SDS011;3186;54.062;9.962;2023-06-14T05:24:23;5.23;;;3.40;;
6306;SDS011;3186;54.062;9.962;2023-06-14T05:26:48;10.50;;;4.17;;
6306;SDS011;3186;54.062;9.962;2023-06-14T05:29:14;6.63;;;3.47;;
6306;SDS011;3186;54.062;9.962;2023-06-14T05:31:40;7.70;;;4.03;;
6306;SDS011;3186;54.062;9.962;2023-06-14T05:34:06;4.67;;;3.37;;
6306;SDS011;3186;54.062;9.962;2023-06-14T05:36:32;5.87;;;3.30;;
6306;SDS011;3186;54.062;9.962;2023-06-14T05:38:58;8.40;;;3.43;;
6306;SDS011;3186;54.062;9.962;2023-06-14T05:41:25;7.73;;;4.03;;
6306;SDS011;3186;54.062;9.962;2023-06-14T05:43:51;5.43;;;3.50;;
6306;SDS011;3186;54.062;9.962;2023-06-14T05:46:19;6.23;;;3.63;;
6306;SDS011;3186;54.062;9.962;2023-06-14T05:48:49;5.73;;;3.40;;
6306;SDS011;3186;54.062;9.962;2023-06-14T05:51:19;5.73;;;3.43;;
6306;SDS011;3186;54.062;9.962;2023-06-14T05:53:45;6.77;;;3.37;;
6306;SDS011;3186;54.062;9.962;2023-06-14T05:56:12;6.40;;;3.30;;
6306;SDS011;3186;54.062;9.962;2023-06-14T05:58:38;5.70;;;3.53;;
6306;SDS011;3186;54.062;9.962;2023-06-14T06:01:04;9.03;;;3.43;;
6306;SDS011;3186;54.062;9.962;2023-06-14T06:03:29;8.80;;;3.40;;
6306;SDS011;3186;54.062;9.962;2023-06-14T06:05:55;3.97;;;2.83;;
6306;SDS011;3186;54.062;9.962;2023-06-14T06:08:21;6.90;;;3.20;;
6306;SDS011;3186;54.062;9.962;2023-06-14T06:10:47;6.83;;;3.67;;
6306;SDS011;3186;54.062;9.962;2023-06-14T06:13:13;10.60;;;3.80;;
6306;SDS011;3186;54.062;9.962;2023-06-14T06:15:40;9.73;;;3.30;;
6306;SDS011;3186;54.062;9.962;2023-06-14T06:18:05;4.63;;;3.10;;
6306;SDS011;3186;54.062;9.962;2023-06-14T06:20:31;7.23;;;3.70;;
6306;SDS011;3186;54.062;9.962;2023-06-14T06:22:57;6.77;;;3.33;;
6306;SDS011;3186;54.062;9.962;2023-06-14T06:25:24;5.77;;;3.90;;
6306;SDS011;3186;54.062;9.962;2023-06-14T06:27:52;7.93;;;3.70;;
6306;SDS011;3186;54.062;9.962;2023-06-14T06:30:19;5.87;;;3.13;;
6306;SDS011;3186;54.062;9.962;2023-06-14T06:32:45;8.43;;;3.50;;
6306;SDS011;3186;54.062;9.962;2023-06-14T06:35:11;4.70;;;3.13;;
6306;SDS011;3186;54.062;9.962;2023-06-14T06:37:41;6.60;;;3.43;;
6306;SDS011;3186;54.062;9.962;2023-06-14T06:40:07;4.53;;;3.10;;
6306;SDS011;3186;54.062;9.962;2023-06-14T06:42:33;3.70;;;3.17;;
6306;SDS011;3186;54.062;9.962;2023-06-14T06:45:02;7.00;;;3.00;;
6306;SDS011;3186;54.062;9.962;2023-06-14T06:47:28;5.40;;;3.17;;
6306;SDS011;3186;54.062;9.962;2023-06-14T06:49:54;5.33;;;3.63;;
6306;SDS011;3186;54.062;9.962;2023-06-14T06:52:20;5.67;;;2.90;;
6306;SDS011;3186;54.062;9.962;2023-06-14T06:54:46;5.50;;;3.23;;
6306;SDS011;3186;54.062;9.962;2023-06-14T06:57:11;7.77;;;3.23;;
6306;SDS011;3186;54.062;9.962;2023-06-14T06:59:37;4.90;;;2.70;;
6306;SDS011;3186;54.062;9.962;2023-06-14T07:02:03;9.23;;;2.87;;
6306;SDS011;3186;54.062;9.962;2023-06-14T07:04:30;5.60;;;2.93;;
6306;SDS011;3186;54.062;9.962;2023-06-14T07:06:56;4.53;;;3.20;;
6306;SDS011;3186;54.062;9.962;2023-06-14T07:09:22;6.17;;;3.40;;
6306;SDS011;3186;54.062;9.962;2023-06-14T07:11:48;4.83;;;2.93;;
6306;SDS011;3186;54.062;9.962;2023-06-14T07:14:14;5.50;;;3.13;;
6306;SDS011;3186;54.062;9.962;2023-06-14T07:16:40;7.50;;;3.23;;
6306;SDS011;3186;54.062;9.962;2023-06-14T07:19:06;6.20;;;2.90;;
6306;SDS011;3186;54.062;9.962;2023-06-14T07:21:32;6.43;;;3.10;;
6306;SDS011;3186;54.062;9.962;2023-06-14T07:23:58;7.70;;;3.10;;
6306;SDS011;3186;54.062;9.962;2023-06-14T07:26:24;3.53;;;2.97;;
6306;SDS011;3186;54.062;9.962;2023-06-14T07:28:50;4.53;;;3.07;;
6306;SDS011;3186;54.062;9.962;2023-06-14T07:31:16;3.97;;;2.90;;
6306;SDS011;3186;54.062;9.962;2023-06-14T07:33:43;2.87;;;2.33;;
6306;SDS011;3186;54.062;9.962;2023-06-14T07:36:09;4.33;;;2.83;;
6306;SDS011;3186;54.062;9.962;2023-06-14T07:38:34;4.97;;;2.90;;
6306;SDS011;3186;54.062;9.962;2023-06-14T07:41:01;5.33;;;3.37;;
6306;SDS011;3186;54.062;9.962;2023-06-14T07:43:27;3.67;;;2.67;;
6306;SDS011;3186;54.062;9.962;2023-06-14T07:45:53;5.37;;;2.63;;
6306;SDS011;3186;54.062;9.962;2023-06-14T07:48:20;3.67;;;2.80;;
6306;SDS011;3186;54.062;9.962;2023-06-14T07:50:46;4.03;;;2.47;;
6306;SDS011;3186;54.062;9.962;2023-06-14T07:53:12;3.63;;;2.70;;
6306;SDS011;3186;54.062;9.962;2023-06-14T07:55:37;3.50;;;2.70;;
6306;SDS011;3186;54.062;9.962;2023-06-14T07:58:05;3.67;;;2.60;;
6306;SDS011;3186;54.062;9.962;2023-06-14T08:00:31;5.67;;;2.93;;
6306;SDS011;3186;54.062;9.962;2023-06-14T08:02:57;5.83;;;2.73;;
6306;SDS011;3186;54.062;9.962;2023-06-14T08:05:24;2.90;;;2.23;;
6306;SDS011;3186;54.062;9.962;2023-06-14T08:07:54;11.70;;;2.97;;
6306;SDS011;3186;54.062;9.962;2023-06-14T08:10:20;6.27;;;2.60;;
6306;SDS011;3186;54.062;9.962;2023-06-14T08:12:47;4.50;;;2.70;;
6306;SDS011;3186;54.062;9.962;2023-06-14T08:15:15;4.40;;;2.90;;
6306;SDS011;3186;54.062;9.962;2023-06-14T08:17:44;5.40;;;2.80;;
6306;SDS011;3186;54.062;9.962;2023-06-14T08:20:10;3.73;;;2.63;;
6306;SDS011;3186;54.062;9.962;2023-06-14T08:22:37;4.33;;;2.17;;
6306;SDS011;3186;54.062;9.962;2023-06-14T08:25:03;5.93;;;2.30;;
6306;SDS011;3186;54.062;9.962;2023-06-14T08:27:29;3.07;;;2.70;;
6306;SDS011;3186;54.062;9.962;2023-06-14T08:29:55;5.13;;;2.70;;
6306;SDS011;3186;54.062;9.962;2023-06-14T08:32:22;4.07;;;2.70;;
6306;SDS011;3186;54.062;9.962;2023-06-14T08:34:48;6.03;;;2.97;;
6306;SDS011;3186;54.062;9.962;2023-06-14T08:37:13;4.53;;;2.60;;
6306;SDS011;3186;54.062;9.962;2023-06-14T08:39:39;3.23;;;2.47;;
6306;SDS011;3186;54.062;9.962;2023-06-14T08:42:06;3.20;;;2.63;;
6306;SDS011;3186;54.062;9.962;2023-06-14T08:44:34;5.43;;;2.80;;
6306;SDS011;3186;54.062;9.962;2023-06-14T08:47:00;3.33;;;2.67;;
6306;SDS011;3186;54.062;9.962;2023-06-14T08:49:28;3.97;;;2.70;;
6306;SDS011;3186;54.062;9.962;2023-06-14T08:51:57;3.40;;;2.53;;
6306;SDS011;3186;54.062;9.962;2023-06-14T08:54:25;3.57;;;2.47;;
6306;SDS011;3186;54.062;9.962;2023-06-14T08:57:01;4.77;;;2.50;;
6306;SDS011;3186;54.062;9.962;2023-06-14T08:59:32;6.57;;;3.07;;
6306;SDS011;3186;54.062;9.962;2023-06-14T09:02:05;4.30;;;2.50;;
6306;SDS011;3186;54.062;9.962;2023-06-14T09:04:31;4.53;;;2.33;;
6306;SDS011;3186;54.062;9.962;2023-06-14T09:06:58;3.37;;;2.70;;
6306;SDS011;3186;54.062;9.962;2023-06-14T09:09:24;7.97;;;2.50;;
6306;SDS011;3186;54.062;9.962;2023-06-14T09:11:51;9.07;;;2.90;;
6306;SDS011;3186;54.062;9.962;2023-06-14T09:14:23;9.60;;;2.97;;
6306;SDS011;3186;54.062;9.962;2023-06-14T09:16:53;3.03;;;2.47;;
6306;SDS011;3186;54.062;9.962;2023-06-14T09:19:23;8.73;;;3.10;;
6306;SDS011;3186;54.062;9.962;2023-06-14T09:21:50;4.90;;;2.63;;
6306;SDS011;3186;54.062;9.962;2023-06-14T09:24:18;4.20;;;2.93;;
6306;SDS011;3186;54.062;9.962;2023-06-14T09:26:46;4.33;;;2.60;;
6306;SDS011;3186;54.062;9.962;2023-06-14T09:29:13;5.20;;;2.93;;
6306;SDS011;3186;54.062;9.962;2023-06-14T09:31:38;6.17;;;2.50;;
6306;SDS011;3186;54.062;9.962;2023-06-14T09:34:04;8.13;;;2.90;;
6306;SDS011;3186;54.062;9.962;2023-06-14T09:36:31;4.80;;;3.40;;
6306;SDS011;3186;54.062;9.962;2023-06-14T09:38:58;6.77;;;2.70;;
6306;SDS011;3186;54.062;9.962;2023-06-14T09:41:36;5.70;;;2.87;;
6306;SDS011;3186;54.062;9.962;2023-06-14T09:44:04;8.30;;;2.90;;
6306;SDS011;3186;54.062;9.962;2023-06-14T09:46:32;3.80;;;2.80;;
6306;SDS011;3186;54.062;9.962;2023-06-14T09:48:59;4.60;;;2.63;;
6306;SDS011;3186;54.062;9.962;2023-06-14T09:51:26;4.77;;;2.63;;
6306;SDS011;3186;54.062;9.962;2023-06-14T09:53:52;5.73;;;2.80;;
6306;SDS011;3186;54.062;9.962;2023-06-14T09:56:22;5.43;;;2.70;;
6306;SDS011;3186;54.062;9.962;2023-06-14T09:58:49;4.07;;;2.77;;
6306;SDS011;3186;54.062;9.962;2023-06-14T10:01:24;5.70;;;3.10;;
6306;SDS011;3186;54.062;9.962;2023-06-14T10:04:05;2.80;;;2.60;;
6306;SDS011;3186;54.062;9.962;2023-06-14T10:06:35;5.30;;;2.90;;
6306;SDS011;3186;54.062;9.962;2023-06-14T10:09:04;3.60;;;2.70;;
6306;SDS011;3186;54.062;9.962;2023-06-14T10:11:33;5.57;;;3.10;;
6306;SDS011;3186;54.062;9.962;2023-06-14T10:14:00;6.50;;;3.07;;
6306;SDS011;3186;54.062;9.962;2023-06-14T10:16:30;3.13;;;2.33;;
6306;SDS011;3186;54.062;9.962;2023-06-14T10:21:41;6.40;;;2.50;;
6306;SDS011;3186;54.062;9.962;2023-06-14T10:24:08;3.30;;;2.33;;
6306;SDS011;3186;54.062;9.962;2023-06-14T10:26:49;4.67;;;2.40;;
6306;SDS011;3186;54.062;9.962;2023-06-14T10:29:22;2.87;;;2.67;;
6306;SDS011;3186;54.062;9.962;2023-06-14T10:31:50;3.70;;;2.50;;
6306;SDS011;3186;54.062;9.962;2023-06-14T10:34:21;5.73;;;2.90;;
6306;SDS011;3186;54.062;9.962;2023-06-14T10:37:01;4.57;;;2.60;;
6306;SDS011;3186;54.062;9.962;2023-06-14T10:39:31;4.17;;;2.80;;
6306;SDS011;3186;54.062;9.962;2023-06-14T10:42:01;4.10;;;2.53;;
6306;SDS011;3186;54.062;9.962;2023-06-14T10:46:55;6.07;;;2.40;;
6306;SDS011;3186;54.062;9.962;2023-06-14T10:52:10;6.63;;;3.00;;
6306;SDS011;3186;54.062;9.962;2023-06-14T10:57:42;3.57;;;2.47;;
6306;SDS011;3186;54.062;9.962;2023-06-14T11:00:13;2.93;;;2.60;;
6306;SDS011;3186;54.062;9.962;2023-06-14T11:05:41;4.53;;;2.50;;
6306;SDS011;3186;54.062;9.962;2023-06-14T11:08:17;3.47;;;3.00;;
6306;SDS011;3186;54.062;9.962;2023-06-14T11:11:09;7.90;;;3.13;;
6306;SDS011;3186;54.062;9.962;2023-06-14T11:13:42;6.37;;;2.70;;
6306;SDS011;3186;54.062;9.962;2023-06-14T11:16:13;5.93;;;2.77;;
6306;SDS011;3186;54.062;9.962;2023-06-14T11:18:44;5.20;;;2.67;;
6306;SDS011;3186;54.062;9.962;2023-06-14T11:21:10;2.97;;;2.33;;
6306;SDS011;3186;54.062;9.962;2023-06-14T11:23:40;3.33;;;2.73;;
6306;SDS011;3186;54.062;9.962;2023-06-14T11:26:06;7.13;;;3.27;;
6306;SDS011;3186;54.062;9.962;2023-06-14T11:28:39;4.53;;;2.83;;
6306;SDS011;3186;54.062;9.962;2023-06-14T11:31:06;4.30;;;2.77;;
6306;SDS011;3186;54.062;9.962;2023-06-14T11:33:33;7.20;;;2.73;;
6306;SDS011;3186;54.062;9.962;2023-06-14T11:36:03;3.97;;;2.90;;
6306;SDS011;3186;54.062;9.962;2023-06-14T11:38:30;4.00;;;2.30;;
6306;SDS011;3186;54.062;9.962;2023-06-14T11:40:59;3.60;;;2.83;;
6306;SDS011;3186;54.062;9.962;2023-06-14T11:43:25;5.03;;;2.33;;
6306;SDS011;3186;54.062;9.962;2023-06-14T11:45:52;4.30;;;2.80;;
6306;SDS011;3186;54.062;9.962;2023-06-14T11:48:18;4.13;;;2.53;;
6306;SDS011;3186;54.062;9.962;2023-06-14T11:50:49;5.37;;;2.70;;
6306;SDS011;3186;54.062;9.962;2023-06-14T11:53:16;7.33;;;2.47;;
6306;SDS011;3186;54.062;9.962;2023-06-14T11:55:42;4.97;;;2.83;;
6306;SDS011;3186;54.062;9.962;2023-06-14T11:58:10;3.33;;;2.40;;
6306;SDS011;3186;54.062;9.962;2023-06-14T12:00:36;3.53;;;2.97;;
6306;SDS011;3186;54.062;9.962;2023-06-14T12:03:02;3.47;;;2.47;;
6306;SDS011;3186;54.062;9.962;2023-06-14T12:05:28;3.00;;;2.47;;
6306;SDS011;3186;54.062;9.962;2023-06-14T12:07:58;5.90;;;2.60;;
6306;SDS011;3186;54.062;9.962;2023-06-14T12:10:25;4.83;;;2.50;;
6306;SDS011;3186;54.062;9.962;2023-06-14T12:12:56;6.07;;;2.80;;
6306;SDS011;3186;54.062;9.962;2023-06-14T12:15:23;3.40;;;2.20;;
6306;SDS011;3186;54.062;9.962;2023-06-14T12:17:49;4.10;;;2.23;;
6306;SDS011;3186;54.062;9.962;2023-06-14T12:20:18;2.93;;;2.47;;
6306;SDS011;3186;54.062;9.962;2023-06-14T12:22:50;2.90;;;2.30;;
6306;SDS011;3186;54.062;9.962;2023-06-14T12:25:31;3.10;;;2.57;;
6306;SDS011;3186;54.062;9.962;2023-06-14T12:28:04;8.10;;;2.67;;
6306;SDS011;3186;54.062;9.962;2023-06-14T12:30:31;5.20;;;3.00;;
6306;SDS011;3186;54.062;9.962;2023-06-14T12:32:57;4.37;;;2.53;;
6306;SDS011;3186;54.062;9.962;2023-06-14T12:35:23;4.13;;;2.40;;
6306;SDS011;3186;54.062;9.962;2023-06-14T12:37:49;5.40;;;2.63;;
6306;SDS011;3186;54.062;9.962;2023-06-14T12:40:14;3.87;;;2.30;;
6306;SDS011;3186;54.062;9.962;2023-06-14T12:42:41;4.67;;;2.33;;
6306;SDS011;3186;54.062;9.962;2023-06-14T12:45:07;3.40;;;2.03;;
6306;SDS011;3186;54.062;9.962;2023-06-14T12:47:34;3.60;;;2.33;;
6306;SDS011;3186;54.062;9.962;2023-06-14T12:49:59;3.77;;;2.67;;
6306;SDS011;3186;54.062;9.962;2023-06-14T12:52:26;7.47;;;2.90;;
6306;SDS011;3186;54.062;9.962;2023-06-14T12:54:52;5.97;;;2.33;;
6306;SDS011;3186;54.062;9.962;2023-06-14T12:57:17;3.87;;;2.60;;
6306;SDS011;3186;54.062;9.962;2023-06-14T12:59:43;7.17;;;2.47;;
6306;SDS011;3186;54.062;9.962;2023-06-14T13:02:13;2.87;;;2.00;;
6306;SDS011;3186;54.062;9.962;2023-06-14T13:04:40;6.63;;;2.40;;
6306;SDS011;3186;54.062;9.962;2023-06-14T13:07:06;2.97;;;1.97;;
6306;SDS011;3186;54.062;9.962;2023-06-14T13:09:31;3.73;;;2.30;;
6306;SDS011;3186;54.062;9.962;2023-06-14T13:11:57;2.97;;;2.30;;
6306;SDS011;3186;54.062;9.962;2023-06-14T13:14:23;5.30;;;2.40;;
6306;SDS011;3186;54.062;9.962;2023-06-14T13:16:49;3.00;;;2.60;;
6306;SDS011;3186;54.062;9.962;2023-06-14T13:19:15;3.57;;;2.53;;
6306;SDS011;3186;54.062;9.962;2023-06-14T13:21:41;3.30;;;2.50;;
6306;SDS011;3186;54.062;9.962;2023-06-14T13:24:07;6.23;;;2.40;;
6306;SDS011;3186;54.062;9.962;2023-06-14T13:26:33;7.23;;;2.90;;
6306;SDS011;3186;54.062;9.962;2023-06-14T13:29:00;3.03;;;2.67;;
6306;SDS011;3186;54.062;9.962;2023-06-14T13:31:26;4.60;;;2.83;;
6306;SDS011;3186;54.062;9.962;2023-06-14T13:33:51;3.90;;;2.60;;
6306;SDS011;3186;54.062;9.962;2023-06-14T13:36:17;6.20;;;2.57;;
6306;SDS011;3186;54.062;9.962;2023-06-14T13:38:43;5.37;;;2.50;;
6306;SDS011;3186;54.062;9.962;2023-06-14T13:41:09;8.03;;;2.53;;
6306;SDS011;3186;54.062;9.962;2023-06-14T13:43:35;3.47;;;2.40;;
6306;SDS011;3186;54.062;9.962;2023-06-14T13:46:00;3.50;;;2.40;;
6306;SDS011;3186;54.062;9.962;2023-06-14T13:48:26;3.00;;;2.50;;
6306;SDS011;3186;54.062;9.962;2023-06-14T13:50:52;4.10;;;2.70;;
6306;SDS011;3186;54.062;9.962;2023-06-14T13:53:18;5.83;;;2.60;;
6306;SDS011;3186;54.062;9.962;2023-06-14T13:55:44;3.67;;;2.30;;
6306;SDS011;3186;54.062;9.962;2023-06-14T13:58:10;3.37;;;2.60;;
6306;SDS011;3186;54.062;9.962;2023-06-14T14:00:36;5.90;;;2.67;;
6306;SDS011;3186;54.062;9.962;2023-06-14T14:03:05;3.97;;;2.70;;
6306;SDS011;3186;54.062;9.962;2023-06-14T14:05:34;5.13;;;2.63;;
6306;SDS011;3186;54.062;9.962;2023-06-14T14:08:00;6.10;;;2.70;;
6306;SDS011;3186;54.062;9.962;2023-06-14T14:10:26;4.23;;;2.47;;
6306;SDS011;3186;54.062;9.962;2023-06-14T14:12:52;6.97;;;2.50;;
6306;SDS011;3186;54.062;9.962;2023-06-14T14:15:20;3.47;;;2.60;;
6306;SDS011;3186;54.062;9.962;2023-06-14T14:17:45;4.63;;;2.43;;
6306;SDS011;3186;54.062;9.962;2023-06-14T14:20:12;4.23;;;2.47;;
6306;SDS011;3186;54.062;9.962;2023-06-14T14:22:41;3.27;;;2.60;;
6306;SDS011;3186;54.062;9.962;2023-06-14T14:25:08;2.60;;;2.07;;
6306;SDS011;3186;54.062;9.962;2023-06-14T14:27:34;2.87;;;2.10;;
6306;SDS011;3186;54.062;9.962;2023-06-14T14:30:00;2.37;;;2.10;;
6306;SDS011;3186;54.062;9.962;2023-06-14T14:32:25;6.67;;;2.80;;
6306;SDS011;3186;54.062;9.962;2023-06-14T14:34:51;4.23;;;2.40;;
6306;SDS011;3186;54.062;9.962;2023-06-14T14:37:17;6.63;;;3.00;;
6306;SDS011;3186;54.062;9.962;2023-06-14T14:39:44;4.00;;;2.77;;
6306;SDS011;3186;54.062;9.962;2023-06-14T14:42:10;5.70;;;2.97;;
6306;SDS011;3186;54.062;9.962;2023-06-14T14:44:38;8.03;;;2.93;;
6306;SDS011;3186;54.062;9.962;2023-06-14T14:47:04;6.13;;;2.63;;
6306;SDS011;3186;54.062;9.962;2023-06-14T14:49:30;3.07;;;2.40;;
6306;SDS011;3186;54.062;9.962;2023-06-14T14:51:57;4.00;;;2.50;;
6306;SDS011;3186;54.062;9.962;2023-06-14T14:54:23;3.47;;;2.60;;
6306;SDS011;3186;54.062;9.962;2023-06-14T14:56:50;3.73;;;2.73;;
6306;SDS011;3186;54.062;9.962;2023-06-14T14:59:16;2.80;;;2.37;;
6306;SDS011;3186;54.062;9.962;2023-06-14T15:01:43;5.23;;;2.80;;
6306;SDS011;3186;54.062;9.962;2023-06-14T15:04:10;4.53;;;2.50;;
6306;SDS011;3186;54.062;9.962;2023-06-14T15:06:37;3.40;;;2.50;;
6306;SDS011;3186;54.062;9.962;2023-06-14T15:09:05;4.00;;;2.90;;
6306;SDS011;3186;54.062;9.962;2023-06-14T15:11:31;5.07;;;3.03;;
6306;SDS011;3186;54.062;9.962;2023-06-14T15:13:57;4.43;;;2.40;;
6306;SDS011;3186;54.062;9.962;2023-06-14T15:16:23;4.20;;;2.83;;
6306;SDS011;3186;54.062;9.962;2023-06-14T15:18:49;5.43;;;2.80;;
6306;SDS011;3186;54.062;9.962;2023-06-14T15:21:15;4.03;;;2.80;;
6306;SDS011;3186;54.062;9.962;2023-06-14T15:23:43;2.60;;;2.40;;
6306;SDS011;3186;54.062;9.962;2023-06-14T15:26:08;5.03;;;2.83;;
6306;SDS011;3186;54.062;9.962;2023-06-14T15:28:34;4.00;;;2.67;;
6306;SDS011;3186;54.062;9.962;2023-06-14T15:31:00;4.73;;;2.63;;
6306;SDS011;3186;54.062;9.962;2023-06-14T15:33:27;4.70;;;3.20;;